Time;durP1;ratioP1;P1;durP2;ratioP2;P2;SDS_P1;SDS_P2;PMS_P1;PMS_P2;Temp;Humidity;BMP_temperature;BMP_pressure;BME280_temperature;BME280_humidity;BME280_pressure;Samples;Min_cycle;Max_cycle;Signal;HPM_P1;HPM_P2
2022/01/06 00:00:36;;;;;;;15.80;6.77;;;;;;;;;;4995941;28;20835;-58
2022/01/06 00:03:02;;;;;;;15.03;6.73;;;;;;;;;;5013876;28;20355;-57
2022/01/06 00:05:28;;;;;;;15.47;6.57;;;;;;;;;;5017345;28;20622;-57
2022/01/06 00:07:54;;;;;;;14.67;6.37;;;;;;;;;;5008279;28;20232;-57
2022/01/06 00:10:20;;;;;;;14.73;6.10;;;;;;;;;;4995023;28;20814;-58
2022/01/06 00:13:02;;;;;;;13.07;6.20;;;;;;;;;;5008631;28;20252;-57
2022/01/06 00:15:38;;;;;;;15.70;6.40;;;;;;;;;;5009288;28;20480;-57
2022/01/06 00:23:35;;;;;;;12.97;6.17;;;;;;;;;;5002811;28;20327;-58
2022/01/06 00:26:01;;;;;;;14.50;6.60;;;;;;;;;;5004278;28;20232;-58
2022/01/06 00:28:27;;;;;;;17.43;5.57;;;;;;;;;;5001586;28;20271;-57
2022/01/06 00:30:53;;;;;;;13.10;5.93;;;;;;;;;;5006249;28;20237;-57
2022/01/06 00:33:20;;;;;;;14.50;6.80;;;;;;;;;;4994171;28;20782;-58
2022/01/06 00:35:46;;;;;;;16.03;6.13;;;;;;;;;;5000905;28;20247;-57
2022/01/06 00:38:12;;;;;;;8.57;5.33;;;;;;;;;;5005046;28;20281;-58
2022/01/06 00:40:38;;;;;;;16.97;5.90;;;;;;;;;;5001090;28;20243;-57
2022/01/06 00:43:04;;;;;;;13.57;5.50;;;;;;;;;;4998711;28;20231;-57
2022/01/06 00:45:30;;;;;;;14.43;5.17;;;;;;;;;;4989336;28;20247;-58
2022/01/06 00:47:56;;;;;;;10.33;4.97;;;;;;;;;;4990172;28;20258;-58
2022/01/06 00:50:22;;;;;;;11.73;5.10;;;;;;;;;;4996637;28;20232;-58
2022/01/06 00:52:48;;;;;;;16.53;5.10;;;;;;;;;;5005360;28;20235;-58
2022/01/06 00:55:14;;;;;;;15.70;5.17;;;;;;;;;;5006038;28;20741;-58
2022/01/06 00:57:40;;;;;;;19.40;4.80;;;;;;;;;;5005083;28;20246;-57
2022/01/06 01:00:06;;;;;;;12.57;5.30;;;;;;;;;;5003738;28;20270;-57
2022/01/06 01:02:32;;;;;;;13.47;5.17;;;;;;;;;;4997625;28;20240;-57
2022/01/06 01:04:58;;;;;;;11.40;5.03;;;;;;;;;;4999655;28;21135;-58
2022/01/06 01:07:24;;;;;;;14.70;5.53;;;;;;;;;;4999836;28;20225;-57
2022/01/06 01:09:50;;;;;;;13.23;4.80;;;;;;;;;;5012294;28;20239;-57
2022/01/06 01:12:16;;;;;;;15.73;5.30;;;;;;;;;;5005682;28;20236;-57
2022/01/06 01:14:56;;;;;;;13.53;4.70;;;;;;;;;;4998700;28;20228;-57
2022/01/06 01:17:24;;;;;;;15.77;5.03;;;;;;;;;;5002828;28;20743;-58
2022/01/06 01:19:50;;;;;;;17.27;4.67;;;;;;;;;;5005481;28;20739;-57
2022/01/06 01:22:16;;;;;;;15.20;5.07;;;;;;;;;;5010479;28;20731;-58
2022/01/06 01:24:42;;;;;;;11.30;4.30;;;;;;;;;;4998583;28;20245;-57
2022/01/06 01:27:09;;;;;;;13.80;4.53;;;;;;;;;;5001988;28;20854;-58
2022/01/06 01:29:44;;;;;;;14.97;4.57;;;;;;;;;;4994802;28;20232;-58
2022/01/06 01:32:10;;;;;;;13.67;4.43;;;;;;;;;;4992380;28;20661;-58
2022/01/06 01:34:38;;;;;;;13.33;4.87;;;;;;;;;;4996105;28;20288;-57
2022/01/06 01:37:04;;;;;;;15.63;4.93;;;;;;;;;;5009809;28;20821;-58
2022/01/06 01:39:30;;;;;;;10.57;3.50;;;;;;;;;;5011050;28;20243;-57
2022/01/06 01:41:56;;;;;;;10.80;4.40;;;;;;;;;;5004519;28;20254;-57
2022/01/06 01:44:22;;;;;;;17.00;4.87;;;;;;;;;;4993611;28;20233;-58
2022/01/06 01:46:59;;;;;;;13.13;4.50;;;;;;;;;;5007426;28;20876;-58
2022/01/06 01:51:51;;;;;;;13.50;4.47;;;;;;;;;;5000893;28;20981;-57
2022/01/06 01:54:17;;;;;;;11.60;4.30;;;;;;;;;;4998936;28;20283;-57
2022/01/06 01:56:43;;;;;;;12.83;4.33;;;;;;;;;;5005463;28;20627;-57
2022/01/06 01:59:09;;;;;;;9.63;4.03;;;;;;;;;;5002715;28;20457;-57
2022/01/06 02:01:35;;;;;;;15.00;4.27;;;;;;;;;;4995571;28;20232;-58
2022/01/06 02:04:01;;;;;;;8.43;3.90;;;;;;;;;;4991373;28;20712;-58
2022/01/06 02:06:27;;;;;;;18.33;4.47;;;;;;;;;;4997869;28;20617;-58
2022/01/06 02:08:54;;;;;;;15.30;4.30;;;;;;;;;;5004179;28;20232;-58
2022/01/06 02:11:20;;;;;;;13.57;4.10;;;;;;;;;;5009751;28;20239;-57
2022/01/06 02:13:47;;;;;;;10.77;4.20;;;;;;;;;;5014873;28;20322;-57
2022/01/06 02:16:13;;;;;;;12.90;3.80;;;;;;;;;;5008219;28;20240;-58
2022/01/06 02:18:38;;;;;;;11.03;3.90;;;;;;;;;;5008116;28;20653;-57
2022/01/06 02:21:04;;;;;;;17.93;4.33;;;;;;;;;;5005461;28;20257;-58
2022/01/06 02:23:30;;;;;;;9.33;3.77;;;;;;;;;;5002382;28;21016;-57
2022/01/06 02:25:56;;;;;;;12.47;4.03;;;;;;;;;;5005205;28;20236;-57
2022/01/06 02:28:22;;;;;;;14.87;4.50;;;;;;;;;;5000886;28;20236;-58
2022/01/06 02:30:51;;;;;;;10.80;4.13;;;;;;;;;;5010106;28;20256;-58
2022/01/06 02:33:17;;;;;;;9.13;3.70;;;;;;;;;;4998247;28;20891;-57
2022/01/06 02:35:44;;;;;;;11.63;3.50;;;;;;;;;;5005302;28;20482;-57
2022/01/06 02:38:10;;;;;;;7.23;3.93;;;;;;;;;;5006793;28;20320;-57
2022/01/06 02:40:36;;;;;;;13.60;4.10;;;;;;;;;;5013531;28;20338;-57
2022/01/06 02:43:05;;;;;;;15.23;4.77;;;;;;;;;;5010454;28;20233;-57
2022/01/06 02:45:31;;;;;;;16.67;4.63;;;;;;;;;;5007982;28;20253;-57
2022/01/06 02:47:57;;;;;;;11.37;4.30;;;;;;;;;;5009449;28;20235;-57
2022/01/06 02:50:23;;;;;;;12.10;4.10;;;;;;;;;;5007396;28;20658;-57
2022/01/06 02:52:49;;;;;;;14.37;4.63;;;;;;;;;;5002686;28;20257;-58
2022/01/06 02:55:15;;;;;;;13.40;4.90;;;;;;;;;;5005744;28;20232;-57
2022/01/06 02:57:42;;;;;;;11.80;4.43;;;;;;;;;;5009470;28;20228;-58
2022/01/06 03:00:08;;;;;;;15.17;4.27;;;;;;;;;;5013631;28;20332;-58
2022/01/06 03:02:34;;;;;;;15.23;4.80;;;;;;;;;;5014869;28;20234;-57
2022/01/06 03:05:00;;;;;;;14.03;4.50;;;;;;;;;;4999835;28;20253;-57
2022/01/06 03:07:27;;;;;;;13.40;4.90;;;;;;;;;;5006372;28;20849;-57
2022/01/06 03:09:55;;;;;;;17.07;4.50;;;;;;;;;;5001850;28;20615;-58
2022/01/06 03:12:33;;;;;;;15.23;5.20;;;;;;;;;;5002884;28;20298;-57
2022/01/06 03:14:59;;;;;;;16.43;5.43;;;;;;;;;;4995393;28;20286;-58
2022/01/06 03:17:25;;;;;;;13.97;5.00;;;;;;;;;;5008415;28;20233;-57
2022/01/06 03:19:51;;;;;;;20.37;5.67;;;;;;;;;;5006427;28;20804;-57
2022/01/06 03:22:17;;;;;;;11.60;4.63;;;;;;;;;;5000558;28;20971;-58
2022/01/06 03:24:43;;;;;;;15.70;4.30;;;;;;;;;;5009343;28;20705;-58
2022/01/06 03:27:09;;;;;;;13.13;4.43;;;;;;;;;;5004970;28;20820;-58
2022/01/06 03:29:35;;;;;;;15.17;4.60;;;;;;;;;;5008949;28;22259;-57
2022/01/06 03:32:01;;;;;;;20.73;5.13;;;;;;;;;;5002327;28;20284;-57
2022/01/06 03:34:30;;;;;;;15.50;4.57;;;;;;;;;;5003946;28;20532;-57
2022/01/06 03:36:57;;;;;;;15.83;5.13;;;;;;;;;;4996387;28;20524;-58
2022/01/06 03:39:23;;;;;;;18.40;4.77;;;;;;;;;;4999080;28;20262;-57
2022/01/06 03:41:49;;;;;;;14.93;4.33;;;;;;;;;;4993628;28;20251;-57
2022/01/06 03:44:14;;;;;;;17.97;4.93;;;;;;;;;;5000553;28;20315;-57
2022/01/06 03:46:40;;;;;;;14.63;4.40;;;;;;;;;;5004913;28;20251;-57
2022/01/06 03:49:06;;;;;;;14.00;4.43;;;;;;;;;;4988867;28;20796;-57
2022/01/06 03:51:33;;;;;;;17.10;5.00;;;;;;;;;;4976255;28;20583;-57
2022/01/06 03:53:59;;;;;;;17.23;4.90;;;;;;;;;;5007625;28;20857;-57
2022/01/06 03:56:25;;;;;;;19.33;4.93;;;;;;;;;;5010993;28;20236;-57
2022/01/06 03:58:51;;;;;;;16.50;5.17;;;;;;;;;;5009530;28;20804;-57
2022/01/06 04:01:17;;;;;;;15.23;4.93;;;;;;;;;;5007194;28;20667;-57
2022/01/06 04:03:45;;;;;;;15.83;4.50;;;;;;;;;;4993874;28;20235;-57
2022/01/06 04:06:11;;;;;;;11.43;4.53;;;;;;;;;;5013189;28;20227;-57
2022/01/06 04:08:37;;;;;;;17.50;4.57;;;;;;;;;;5007454;28;20240;-57
2022/01/06 04:11:03;;;;;;;15.00;4.57;;;;;;;;;;5002067;28;20335;-57
2022/01/06 04:13:29;;;;;;;13.40;5.03;;;;;;;;;;5005026;28;20242;-58
2022/01/06 04:15:57;;;;;;;15.17;4.50;;;;;;;;;;5005462;28;20224;-58
2022/01/06 04:18:23;;;;;;;14.63;4.60;;;;;;;;;;5011336;28;20223;-57
2022/01/06 04:20:49;;;;;;;18.07;5.10;;;;;;;;;;5003823;28;20331;-57
2022/01/06 04:23:15;;;;;;;12.50;4.97;;;;;;;;;;5007353;28;20229;-58
2022/01/06 04:25:41;;;;;;;16.90;4.70;;;;;;;;;;4995854;28;20229;-58
2022/01/06 04:28:07;;;;;;;20.33;4.93;;;;;;;;;;4989341;28;20815;-57
2022/01/06 04:30:33;;;;;;;13.90;5.30;;;;;;;;;;4999149;28;20328;-57
2022/01/06 04:32:59;;;;;;;16.70;4.77;;;;;;;;;;5010460;28;20226;-57
2022/01/06 04:35:25;;;;;;;17.73;4.73;;;;;;;;;;4995518;28;20229;-57
2022/01/06 04:37:51;;;;;;;13.77;4.40;;;;;;;;;;5008963;28;20596;-58
2022/01/06 04:40:17;;;;;;;16.37;5.27;;;;;;;;;;5007456;28;20519;-57
2022/01/06 04:42:43;;;;;;;15.93;4.33;;;;;;;;;;5008639;28;20943;-58
2022/01/06 04:45:09;;;;;;;15.47;4.33;;;;;;;;;;5000779;28;20236;-58
2022/01/06 04:47:35;;;;;;;18.83;4.50;;;;;;;;;;5007105;28;20240;-58
2022/01/06 04:50:01;;;;;;;18.57;4.60;;;;;;;;;;5001291;28;20243;-57
2022/01/06 04:52:27;;;;;;;16.27;4.13;;;;;;;;;;5007094;28;20251;-58
2022/01/06 04:54:53;;;;;;;11.57;4.47;;;;;;;;;;5009039;28;20229;-58
2022/01/06 04:57:19;;;;;;;14.20;4.30;;;;;;;;;;5013060;28;20243;-57
2022/01/06 04:59:45;;;;;;;10.90;4.67;;;;;;;;;;4999472;28;20224;-58
2022/01/06 05:02:11;;;;;;;14.93;4.30;;;;;;;;;;5002651;28;20268;-57
2022/01/06 05:04:37;;;;;;;14.33;4.60;;;;;;;;;;5010330;28;20298;-58
2022/01/06 05:07:03;;;;;;;15.27;4.43;;;;;;;;;;5006184;28;20240;-58
2022/01/06 05:09:29;;;;;;;13.50;4.73;;;;;;;;;;5017511;28;20232;-57
2022/01/06 05:11:55;;;;;;;13.77;4.23;;;;;;;;;;5016332;28;20568;-57
2022/01/06 05:14:21;;;;;;;16.77;4.90;;;;;;;;;;5018809;28;20296;-57
2022/01/06 05:16:47;;;;;;;13.57;4.53;;;;;;;;;;5016791;28;20228;-57
2022/01/06 05:19:13;;;;;;;20.60;3.97;;;;;;;;;;5017451;28;20776;-57
2022/01/06 05:21:39;;;;;;;13.13;4.43;;;;;;;;;;5001170;28;20249;-57
2022/01/06 05:24:16;;;;;;;15.37;4.90;;;;;;;;;;5007083;28;20322;-57
2022/01/06 05:26:42;;;;;;;12.93;3.70;;;;;;;;;;5007727;28;20678;-58
2022/01/06 05:29:08;;;;;;;17.20;5.40;;;;;;;;;;5000885;28;20224;-57
2022/01/06 05:31:34;;;;;;;16.87;5.27;;;;;;;;;;4998675;28;20228;-57
2022/01/06 05:34:00;;;;;;;12.53;4.83;;;;;;;;;;5001627;28;20749;-57
2022/01/06 05:36:26;;;;;;;14.00;4.87;;;;;;;;;;4997944;28;20228;-57
2022/01/06 05:38:52;;;;;;;16.60;5.20;;;;;;;;;;5004160;28;20232;-57
2022/01/06 05:41:18;;;;;;;17.37;4.50;;;;;;;;;;4986894;28;20278;-57
2022/01/06 05:43:44;;;;;;;16.97;5.43;;;;;;;;;;4997667;28;20235;-58
2022/01/06 05:46:10;;;;;;;15.40;4.70;;;;;;;;;;5007841;28;20241;-57
2022/01/06 05:48:36;;;;;;;16.63;4.93;;;;;;;;;;5006715;28;20239;-58
2022/01/06 05:51:02;;;;;;;15.63;5.00;;;;;;;;;;5004936;28;20240;-58
2022/01/06 05:53:29;;;;;;;14.30;4.67;;;;;;;;;;5006023;28;20288;-57
2022/01/06 05:55:55;;;;;;;13.37;4.60;;;;;;;;;;5005249;28;20286;-57
2022/01/06 05:58:21;;;;;;;15.87;5.10;;;;;;;;;;4996240;28;20970;-57
2022/01/06 06:00:47;;;;;;;19.73;5.00;;;;;;;;;;5009730;28;20674;-57
2022/01/06 06:03:13;;;;;;;13.30;4.80;;;;;;;;;;5006147;28;20233;-57
2022/01/06 06:05:41;;;;;;;20.50;4.83;;;;;;;;;;5007568;28;20227;-57
2022/01/06 06:08:07;;;;;;;14.40;4.77;;;;;;;;;;5004096;28;20238;-56
2022/01/06 06:10:33;;;;;;;15.17;5.20;;;;;;;;;;5008485;28;20240;-58
2022/01/06 06:12:59;;;;;;;15.60;5.13;;;;;;;;;;5000847;28;20929;-57
2022/01/06 06:15:26;;;;;;;15.77;5.67;;;;;;;;;;5016286;28;20232;-56
2022/01/06 06:17:52;;;;;;;24.63;5.80;;;;;;;;;;5015014;28;20231;-55
2022/01/06 06:20:18;;;;;;;14.87;4.93;;;;;;;;;;5013180;28;20841;-57
2022/01/06 06:22:44;;;;;;;17.27;4.73;;;;;;;;;;5008436;28;20610;-56
2022/01/06 06:25:10;;;;;;;17.10;5.63;;;;;;;;;;5019581;28;20230;-56
2022/01/06 06:27:36;;;;;;;13.23;4.83;;;;;;;;;;5015584;28;24483;-56
2022/01/06 06:30:02;;;;;;;13.60;5.37;;;;;;;;;;5011129;28;20252;-56
2022/01/06 06:32:30;;;;;;;17.73;5.17;;;;;;;;;;5016331;28;20665;-56
2022/01/06 06:34:56;;;;;;;16.60;5.33;;;;;;;;;;5013196;28;20248;-56
2022/01/06 06:37:22;;;;;;;18.27;5.23;;;;;;;;;;5005027;28;20220;-56
2022/01/06 06:39:48;;;;;;;15.30;6.33;;;;;;;;;;5004317;28;20260;-58
2022/01/06 06:42:14;;;;;;;19.40;7.00;;;;;;;;;;4999881;28;20259;-58
2022/01/06 06:44:40;;;;;;;18.50;5.40;;;;;;;;;;4999615;28;20244;-57
2022/01/06 06:47:06;;;;;;;14.10;6.90;;;;;;;;;;5009695;28;20239;-57
2022/01/06 06:49:32;;;;;;;16.83;6.13;;;;;;;;;;5007472;28;22307;-57
2022/01/06 06:51:58;;;;;;;18.40;7.27;;;;;;;;;;5004088;28;24946;-57
2022/01/06 06:54:25;;;;;;;17.83;6.40;;;;;;;;;;5011727;28;20224;-57
2022/01/06 06:56:51;;;;;;;15.23;6.47;;;;;;;;;;5010614;28;20678;-57
2022/01/06 06:59:17;;;;;;;20.67;6.53;;;;;;;;;;5010427;28;20240;-57
2022/01/06 07:01:43;;;;;;;22.57;7.03;;;;;;;;;;5009781;28;20247;-57
2022/01/06 07:04:09;;;;;;;20.77;7.17;;;;;;;;;;5010088;28;20228;-57
2022/01/06 07:06:34;;;;;;;19.63;7.13;;;;;;;;;;5007888;28;20319;-56
2022/01/06 07:09:00;;;;;;;17.50;6.60;;;;;;;;;;5003363;28;20795;-57
2022/01/06 07:11:26;;;;;;;17.43;7.07;;;;;;;;;;5005973;28;20985;-57
2022/01/06 07:13:52;;;;;;;22.67;6.17;;;;;;;;;;5013074;28;20247;-57
2022/01/06 07:16:18;;;;;;;15.83;5.97;;;;;;;;;;5018203;28;20236;-57
2022/01/06 07:18:44;;;;;;;12.97;6.53;;;;;;;;;;5011654;28;20228;-57
2022/01/06 07:21:10;;;;;;;20.40;6.43;;;;;;;;;;5020611;28;20323;-57
2022/01/06 07:23:36;;;;;;;14.07;6.70;;;;;;;;;;5018645;28;20238;-57
2022/01/06 07:26:02;;;;;;;13.70;6.87;;;;;;;;;;5009455;28;20236;-56
2022/01/06 07:28:28;;;;;;;21.83;7.57;;;;;;;;;;5014297;28;20236;-57
2022/01/06 07:30:54;;;;;;;24.67;6.87;;;;;;;;;;5009436;28;20235;-57
2022/01/06 07:33:20;;;;;;;22.10;7.57;;;;;;;;;;5013400;28;20830;-57
2022/01/06 07:35:46;;;;;;;18.53;7.53;;;;;;;;;;5011212;28;20586;-56
2022/01/06 07:38:12;;;;;;;20.90;7.13;;;;;;;;;;5006137;28;20233;-57
2022/01/06 07:40:38;;;;;;;16.10;6.97;;;;;;;;;;5006892;28;20240;-57
2022/01/06 07:43:04;;;;;;;16.80;7.00;;;;;;;;;;5006645;28;20233;-57
2022/01/06 07:45:30;;;;;;;17.20;7.37;;;;;;;;;;5019541;28;20233;-57
2022/01/06 07:48:02;;;;;;;21.03;7.00;;;;;;;;;;5009704;28;20329;-57
2022/01/06 07:50:33;;;;;;;13.33;6.63;;;;;;;;;;5000330;28;20833;-57
2022/01/06 07:52:59;;;;;;;17.30;7.27;;;;;;;;;;5005972;28;20235;-57
2022/01/06 07:55:25;;;;;;;18.77;7.50;;;;;;;;;;5006824;28;20664;-57
2022/01/06 07:57:51;;;;;;;17.17;7.23;;;;;;;;;;5007458;28;20257;-57
2022/01/06 08:00:17;;;;;;;17.13;7.77;;;;;;;;;;5020213;28;20928;-57
2022/01/06 08:02:44;;;;;;;18.63;6.77;;;;;;;;;;4995537;28;20229;-56
2022/01/06 08:05:13;;;;;;;16.57;6.97;;;;;;;;;;4996739;28;20269;-56
2022/01/06 08:07:39;;;;;;;16.67;7.60;;;;;;;;;;5004069;28;20243;-57
2022/01/06 08:10:05;;;;;;;21.17;7.97;;;;;;;;;;5016537;28;20227;-57
2022/01/06 08:12:31;;;;;;;19.20;8.00;;;;;;;;;;5013891;28;20605;-57
2022/01/06 08:14:57;;;;;;;17.93;7.40;;;;;;;;;;5013502;28;20260;-57
2022/01/06 08:17:23;;;;;;;17.90;7.90;;;;;;;;;;5012531;28;20764;-57
2022/01/06 08:19:49;;;;;;;18.07;7.10;;;;;;;;;;5007946;28;21625;-57
2022/01/06 08:22:15;;;;;;;14.93;7.53;;;;;;;;;;5005199;28;20772;-57
2022/01/06 08:24:41;;;;;;;19.80;8.23;;;;;;;;;;5008025;28;20315;-57
2022/01/06 08:27:08;;;;;;;16.37;8.23;;;;;;;;;;5022527;28;20233;-57
2022/01/06 08:29:36;;;;;;;17.37;7.83;;;;;;;;;;5018807;28;20244;-57
2022/01/06 08:32:02;;;;;;;14.83;7.40;;;;;;;;;;5019324;28;20674;-57
2022/01/06 08:34:28;;;;;;;16.93;7.70;;;;;;;;;;5013740;28;20281;-56
2022/01/06 08:36:54;;;;;;;23.17;8.63;;;;;;;;;;5011233;28;20228;-57
2022/01/06 08:39:20;;;;;;;15.77;8.30;;;;;;;;;;5008038;28;20232;-58
2022/01/06 08:41:47;;;;;;;16.90;7.37;;;;;;;;;;5012337;28;20332;-57
2022/01/06 08:44:13;;;;;;;19.30;8.10;;;;;;;;;;5012647;28;20231;-57
2022/01/06 08:46:39;;;;;;;14.87;7.60;;;;;;;;;;5021568;28;20232;-57
2022/01/06 08:49:06;;;;;;;16.23;7.67;;;;;;;;;;5013646;28;20236;-57
2022/01/06 08:51:32;;;;;;;21.97;7.77;;;;;;;;;;5010215;28;20232;-57
2022/01/06 08:53:58;;;;;;;14.37;7.30;;;;;;;;;;5012614;28;20236;-57
2022/01/06 08:56:24;;;;;;;15.70;7.27;;;;;;;;;;5017595;28;20236;-57
2022/01/06 08:58:50;;;;;;;17.17;7.20;;;;;;;;;;5010700;28;20242;-58
2022/01/06 09:01:16;;;;;;;15.13;7.83;;;;;;;;;;5008955;28;20714;-58
2022/01/06 09:03:42;;;;;;;17.27;8.13;;;;;;;;;;5016342;28;20913;-57
2022/01/06 09:06:08;;;;;;;14.20;7.07;;;;;;;;;;5018002;28;20238;-57
2022/01/06 09:08:34;;;;;;;17.87;7.03;;;;;;;;;;5020889;28;20225;-57
2022/01/06 09:11:00;;;;;;;14.27;6.47;;;;;;;;;;5017326;28;20698;-57
2022/01/06 09:13:26;;;;;;;14.23;6.90;;;;;;;;;;5013051;28;20228;-57
2022/01/06 09:15:52;;;;;;;14.00;6.47;;;;;;;;;;5009810;28;20229;-57
2022/01/06 09:18:18;;;;;;;13.63;6.87;;;;;;;;;;5015806;28;20315;-57
2022/01/06 09:20:44;;;;;;;14.87;6.93;;;;;;;;;;5008854;28;20232;-57
2022/01/06 09:23:10;;;;;;;13.80;7.00;;;;;;;;;;5017924;28;20228;-57
2022/01/06 09:25:36;;;;;;;18.63;6.83;;;;;;;;;;5010898;28;20734;-57
2022/01/06 09:28:02;;;;;;;15.87;6.33;;;;;;;;;;5010531;28;20224;-57
2022/01/06 09:30:27;;;;;;;17.50;7.63;;;;;;;;;;5017600;28;20304;-57
2022/01/06 09:32:53;;;;;;;16.03;7.17;;;;;;;;;;5016236;28;20229;-57
2022/01/06 09:35:20;;;;;;;13.93;6.57;;;;;;;;;;5017687;28;20230;-57
2022/01/06 09:37:46;;;;;;;13.97;6.93;;;;;;;;;;5009786;28;20322;-57
2022/01/06 09:40:12;;;;;;;18.43;10.53;;;;;;;;;;5010167;28;20677;-57
2022/01/06 09:42:40;;;;;;;15.73;7.33;;;;;;;;;;5011547;28;20702;-57
2022/01/06 09:45:06;;;;;;;16.70;6.97;;;;;;;;;;5010005;28;20515;-57
2022/01/06 09:47:32;;;;;;;11.63;6.63;;;;;;;;;;5007106;28;20739;-58
2022/01/06 09:49:58;;;;;;;15.53;6.77;;;;;;;;;;5001776;28;20291;-58
2022/01/06 09:52:24;;;;;;;15.33;6.70;;;;;;;;;;5004822;28;20224;-57
2022/01/06 09:54:50;;;;;;;18.73;7.70;;;;;;;;;;5001029;28;20330;-57
2022/01/06 09:57:16;;;;;;;22.37;7.90;;;;;;;;;;5000187;28;20721;-58
2022/01/06 09:59:44;;;;;;;16.47;7.43;;;;;;;;;;5014104;28;20314;-57
2022/01/06 10:02:16;;;;;;;16.37;7.03;;;;;;;;;;5010931;28;20251;-57
2022/01/06 10:04:42;;;;;;;12.53;5.93;;;;;;;;;;5001906;28;20228;-58
2022/01/06 10:07:08;;;;;;;16.87;7.67;;;;;;;;;;5009910;28;20236;-57
2022/01/06 10:09:35;;;;;;;12.67;7.00;;;;;;;;;;5017907;28;20732;-57
2022/01/06 10:12:03;;;;;;;15.20;7.10;;;;;;;;;;5013208;28;20229;-57
2022/01/06 10:14:44;;;;;;;15.57;6.97;;;;;;;;;;5010725;28;20287;-57
2022/01/06 10:17:30;;;;;;;13.30;6.87;;;;;;;;;;5003094;28;20952;-57
2022/01/06 10:19:56;;;;;;;18.90;7.00;;;;;;;;;;4983740;28;20785;-58
2022/01/06 10:22:22;;;;;;;16.23;7.03;;;;;;;;;;5012030;28;20259;-57
2022/01/06 10:24:49;;;;;;;16.83;7.07;;;;;;;;;;5016380;28;20228;-57
2022/01/06 10:27:16;;;;;;;15.17;7.50;;;;;;;;;;5006261;28;20248;-57
2022/01/06 10:29:51;;;;;;;15.83;7.00;;;;;;;;;;5005287;28;20232;-57
2022/01/06 10:32:21;;;;;;;12.83;6.03;;;;;;;;;;5006734;28;20417;-57
2022/01/06 10:34:48;;;;;;;10.93;6.47;;;;;;;;;;5009609;28;20236;-57
2022/01/06 10:37:20;;;;;;;13.53;6.97;;;;;;;;;;5011656;28;20271;-57
2022/01/06 10:39:46;;;;;;;17.77;6.80;;;;;;;;;;5007861;28;20237;-57
2022/01/06 10:42:12;;;;;;;13.77;6.43;;;;;;;;;;5007417;28;20244;-57
2022/01/06 10:44:57;;;;;;;12.60;6.40;;;;;;;;;;5007228;28;20244;-57
2022/01/06 10:47:39;;;;;;;16.67;6.97;;;;;;;;;;5008261;28;20337;-58
2022/01/06 10:50:08;;;;;;;15.37;6.93;;;;;;;;;;5001067;28;20237;-57
2022/01/06 10:52:34;;;;;;;16.03;6.60;;;;;;;;;;5002851;28;20229;-58
2022/01/06 10:55:10;;;;;;;12.23;6.03;;;;;;;;;;4996307;28;20235;-58
2022/01/06 10:57:36;;;;;;;14.17;6.80;;;;;;;;;;4989908;28;20243;-58
2022/01/06 11:00:02;;;;;;;19.00;6.53;;;;;;;;;;4997405;28;20240;-57
2022/01/06 11:02:28;;;;;;;16.03;7.53;;;;;;;;;;5004096;28;20612;-58
2022/01/06 11:04:54;;;;;;;17.23;6.10;;;;;;;;;;5012032;28;20661;-58
2022/01/06 11:07:20;;;;;;;14.37;7.23;;;;;;;;;;4988563;28;20228;-58
2022/01/06 11:09:49;;;;;;;18.37;7.10;;;;;;;;;;5002455;28;20298;-58
2022/01/06 11:12:27;;;;;;;17.87;7.10;;;;;;;;;;5011146;28;20315;-57
2022/01/06 11:14:53;;;;;;;16.93;7.60;;;;;;;;;;5000326;28;20618;-58
2022/01/06 11:17:21;;;;;;;17.40;8.67;;;;;;;;;;4989469;28;20242;-58
2022/01/06 11:19:50;;;;;;;21.20;9.40;;;;;;;;;;4982789;28;20240;-58
2022/01/06 11:22:16;;;;;;;19.70;8.30;;;;;;;;;;4985411;28;20263;-58
2022/01/06 11:24:51;;;;;;;21.13;8.30;;;;;;;;;;5004969;28;20330;-58
2022/01/06 11:27:17;;;;;;;15.67;7.60;;;;;;;;;;5001258;28;20227;-58
2022/01/06 11:29:43;;;;;;;18.40;8.10;;;;;;;;;;4999789;28;20975;-57
2022/01/06 11:32:19;;;;;;;19.67;8.10;;;;;;;;;;4993516;28;20236;-57
2022/01/06 11:34:45;;;;;;;22.17;8.83;;;;;;;;;;5005870;28;20236;-57
2022/01/06 11:37:12;;;;;;;25.07;8.43;;;;;;;;;;5001649;28;20707;-58
2022/01/06 11:39:38;;;;;;;19.83;8.00;;;;;;;;;;5004469;28;20598;-57
2022/01/06 11:42:12;;;;;;;16.97;8.30;;;;;;;;;;5002331;28;20327;-58
2022/01/06 11:44:47;;;;;;;23.43;8.50;;;;;;;;;;5002252;28;20982;-58
2022/01/06 11:47:13;;;;;;;22.20;9.30;;;;;;;;;;5004370;28;20304;-58
2022/01/06 11:49:40;;;;;;;15.57;8.20;;;;;;;;;;5009548;28;20232;-57
2022/01/06 11:52:06;;;;;;;13.80;7.80;;;;;;;;;;4993829;28;20610;-59
2022/01/06 11:54:32;;;;;;;13.73;7.23;;;;;;;;;;5003827;28;20564;-57
2022/01/06 11:56:58;;;;;;;16.80;8.40;;;;;;;;;;4994398;28;20255;-57
2022/01/06 11:59:31;;;;;;;15.40;8.23;;;;;;;;;;5013916;28;20709;-57
2022/01/06 12:01:57;;;;;;;15.50;8.57;;;;;;;;;;5000633;28;20237;-57
2022/01/06 12:04:23;;;;;;;19.83;8.17;;;;;;;;;;5016682;28;20800;-58
2022/01/06 12:06:49;;;;;;;21.23;8.87;;;;;;;;;;5001318;28;20228;-58
2022/01/06 12:09:16;;;;;;;22.03;8.80;;;;;;;;;;5005469;28;20228;-57
2022/01/06 12:11:42;;;;;;;21.47;9.10;;;;;;;;;;5004378;28;20714;-57
2022/01/06 12:14:08;;;;;;;18.33;9.70;;;;;;;;;;4988964;28;21415;-57
2022/01/06 12:16:35;;;;;;;20.17;9.17;;;;;;;;;;4983940;28;20714;-58
2022/01/06 12:19:01;;;;;;;27.30;10.07;;;;;;;;;;4991396;28;20392;-58
2022/01/06 12:21:27;;;;;;;14.93;8.53;;;;;;;;;;4996818;28;20247;-59
2022/01/06 12:24:00;;;;;;;16.30;8.47;;;;;;;;;;4999915;28;20231;-58
2022/01/06 12:26:26;;;;;;;21.90;9.33;;;;;;;;;;5004634;28;20671;-57
2022/01/06 12:28:52;;;;;;;16.67;8.37;;;;;;;;;;5002492;28;20232;-57
2022/01/06 12:31:25;;;;;;;14.47;8.37;;;;;;;;;;5001397;28;20227;-58
2022/01/06 12:33:58;;;;;;;18.90;8.73;;;;;;;;;;4997199;28;20778;-58
2022/01/06 12:36:24;;;;;;;20.03;8.50;;;;;;;;;;4994172;28;20242;-57
2022/01/06 12:38:50;;;;;;;16.17;8.07;;;;;;;;;;5000628;28;20651;-58
2022/01/06 12:41:17;;;;;;;23.40;8.60;;;;;;;;;;5003679;28;20274;-58
2022/01/06 12:43:43;;;;;;;18.27;8.13;;;;;;;;;;5006377;28;20240;-58
2022/01/06 12:46:13;;;;;;;21.57;8.30;;;;;;;;;;5000766;28;20384;-57
2022/01/06 12:48:43;;;;;;;19.40;7.73;;;;;;;;;;5006181;28;20302;-58
2022/01/06 12:51:11;;;;;;;16.53;8.00;;;;;;;;;;4997832;28;20236;-57
2022/01/06 12:53:41;;;;;;;17.93;7.70;;;;;;;;;;5007622;28;20270;-57
2022/01/06 12:56:07;;;;;;;15.70;7.23;;;;;;;;;;4998752;28;20254;-58
2022/01/06 12:58:34;;;;;;;15.27;6.17;;;;;;;;;;5013656;28;20303;-57
2022/01/06 13:01:01;;;;;;;17.90;6.87;;;;;;;;;;4999998;28;20232;-58
2022/01/06 13:03:27;;;;;;;16.90;6.43;;;;;;;;;;4998553;28;20236;-58
2022/01/06 13:05:53;;;;;;;16.27;6.13;;;;;;;;;;4993160;28;20324;-58
2022/01/06 13:08:19;;;;;;;15.40;5.67;;;;;;;;;;4993394;28;20243;-58
2022/01/06 13:10:45;;;;;;;23.73;6.60;;;;;;;;;;4986426;28;20721;-57
2022/01/06 13:13:12;;;;;;;18.97;5.73;;;;;;;;;;4983110;28;20224;-58
2022/01/06 13:15:38;;;;;;;15.33;6.23;;;;;;;;;;4977116;28;20258;-58
2022/01/06 13:18:04;;;;;;;19.80;6.10;;;;;;;;;;4996530;28;20589;-57
2022/01/06 13:20:36;;;;;;;15.83;5.93;;;;;;;;;;4985864;28;20360;-58
2022/01/06 13:23:41;;;;;;;14.87;6.10;;;;;;;;;;4977724;28;20743;-57
2022/01/06 13:26:05;;;;;;;15.00;6.13;;;;;;;;;;4974052;28;20225;-57
2022/01/06 13:28:31;;;;;;;10.03;5.33;;;;;;;;;;5010262;28;20626;-57
2022/01/06 13:30:57;;;;;;;12.90;5.17;;;;;;;;;;5006536;28;20225;-57
2022/01/06 13:33:24;;;;;;;17.10;6.33;;;;;;;;;;5011876;28;21042;-58
2022/01/06 13:35:54;;;;;;;13.90;6.50;;;;;;;;;;5006590;28;20790;-58
2022/01/06 13:38:23;;;;;;;14.93;5.40;;;;;;;;;;4998404;28;20751;-58
2022/01/06 13:40:50;;;;;;;15.43;5.47;;;;;;;;;;4984811;28;20676;-58
2022/01/06 13:43:22;;;;;;;14.53;6.20;;;;;;;;;;4978739;28;20224;-56
2022/01/06 13:45:50;;;;;;;15.63;5.40;;;;;;;;;;4981278;28;20681;-58
2022/01/06 13:51:06;;;;;;;11.33;5.70;;;;;;;;;;5000378;28;20270;-57
2022/01/06 13:53:32;;;;;;;13.83;5.50;;;;;;;;;;4997819;28;20272;-57
2022/01/06 13:56:01;;;;;;;14.70;5.43;;;;;;;;;;5001004;28;20787;-57
2022/01/06 13:58:27;;;;;;;14.27;5.57;;;;;;;;;;5006348;28;20667;-57
2022/01/06 14:00:53;;;;;;;16.90;5.87;;;;;;;;;;5000457;28;20297;-56
2022/01/06 14:03:20;;;;;;;13.70;5.70;;;;;;;;;;5002349;28;20261;-56
2022/01/06 14:05:45;;;;;;;18.13;6.17;;;;;;;;;;4996671;28;20235;-57
2022/01/06 14:08:11;;;;;;;12.67;5.80;;;;;;;;;;5000875;28;21008;-56
2022/01/06 14:10:40;;;;;;;12.63;5.73;;;;;;;;;;4980631;28;20687;-56
2022/01/06 14:13:06;;;;;;;14.13;5.70;;;;;;;;;;4992323;28;20236;-57
2022/01/06 14:15:32;;;;;;;16.60;6.60;;;;;;;;;;5008031;28;21117;-57
2022/01/06 14:17:58;;;;;;;16.17;6.73;;;;;;;;;;5008906;28;20699;-56
2022/01/06 14:20:24;;;;;;;15.23;6.50;;;;;;;;;;5005448;28;20359;-57
2022/01/06 14:22:50;;;;;;;15.43;6.20;;;;;;;;;;5003600;28;20252;-57
2022/01/06 14:25:16;;;;;;;15.63;6.40;;;;;;;;;;5006837;28;20254;-57
2022/01/06 14:27:42;;;;;;;12.33;5.80;;;;;;;;;;4998109;28;20597;-56
2022/01/06 14:30:08;;;;;;;15.50;6.50;;;;;;;;;;5010089;28;20843;-57
2022/01/06 14:32:36;;;;;;;10.20;6.00;;;;;;;;;;4984637;28;20252;-57
2022/01/06 14:35:02;;;;;;;13.87;6.10;;;;;;;;;;4987445;28;20233;-57
2022/01/06 14:37:28;;;;;;;16.27;6.10;;;;;;;;;;4992555;28;20682;-57
2022/01/06 14:39:54;;;;;;;14.90;6.57;;;;;;;;;;5000364;28;20267;-57